Time;durP1;ratioP1;P1;durP2;ratioP2;P2;SDS_P1;SDS_P2;PMS_P1;PMS_P2;Temp;Humidity;BMP_temperature;BMP_pressure;BME280_temperature;BME280_humidity;BME280_pressure;Samples;Min_cycle;Max_cycle;Signal;HPM_P1;HPM_P2
2022/04/13 00:00:06;;;;;;;4.78;1.58;;;16.20;64.90;;;;;;5029664;28;20021;-68
2022/04/13 00:02:31;;;;;;;5.53;1.52;;;16.20;64.90;;;;;;5034823;28;20021;-67
2022/04/13 00:04:57;;;;;;;3.95;1.20;;;16.20;64.90;;;;;;5032329;28;20036;-68
2022/04/13 00:07:23;;;;;;;8.13;1.63;;;16.20;64.90;;;;;;5029614;28;20563;-67
2022/04/13 00:09:49;;;;;;;3.22;1.48;;;16.20;65.00;;;;;;5034111;28;20534;-68
2022/04/13 00:12:15;;;;;;;7.35;1.38;;;16.20;65.00;;;;;;5031556;28;20147;-68
2022/04/13 00:14:40;;;;;;;4.78;1.60;;;16.20;65.20;;;;;;5032132;28;20105;-68
2022/04/13 00:17:06;;;;;;;4.13;1.40;;;16.30;65.20;;;;;;5037349;28;20053;-68
2022/04/13 00:19:31;;;;;;;4.60;1.25;;;16.30;65.20;;;;;;5044378;28;20059;-68
2022/04/13 00:21:57;;;;;;;5.18;2.15;;;16.30;65.10;;;;;;5032767;28;20068;-67
2022/04/13 00:24:23;;;;;;;3.42;1.10;;;16.30;65.10;;;;;;5033190;28;20568;-68
2022/04/13 00:26:48;;;;;;;8.80;1.80;;;16.30;65.10;;;;;;5037338;28;20715;-68
2022/04/13 00:29:14;;;;;;;4.28;1.45;;;16.20;65.30;;;;;;5031779;28;20060;-68
2022/04/13 00:31:40;;;;;;;7.85;1.60;;;16.20;65.40;;;;;;5031655;28;20021;-68
2022/04/13 00:34:05;;;;;;;5.93;1.67;;;16.20;65.50;;;;;;5031519;28;20020;-67
2022/04/13 00:36:31;;;;;;;4.05;1.60;;;16.10;65.60;;;;;;5037046;28;20424;-68
2022/04/13 00:38:57;;;;;;;5.38;1.40;;;16.10;65.80;;;;;;5035096;28;20469;-68
2022/04/13 00:41:22;;;;;;;4.80;1.60;;;16.10;66.00;;;;;;5043924;28;20025;-68
2022/04/13 00:44:20;;;;;;;3.25;1.00;;;16.00;66.00;;;;;;5036880;28;20029;-68
2022/04/13 00:46:46;;;;;;;3.70;1.33;;;16.10;65.80;;;;;;5040833;28;20056;-68
2022/04/13 00:49:14;;;;;;;5.13;1.35;;;16.10;66.00;;;;;;5028390;28;20497;-67
2022/04/13 00:51:39;;;;;;;4.03;1.52;;;16.10;65.90;;;;;;5034189;28;20025;-68
2022/04/13 00:54:08;;;;;;;4.03;1.25;;;16.10;65.80;;;;;;5033863;28;20037;-68
2022/04/13 00:56:37;;;;;;;4.45;1.35;;;16.10;65.70;;;;;;5028428;28;20025;-67
2022/04/13 00:59:06;;;;;;;4.68;1.52;;;16.10;65.70;;;;;;5033072;28;20024;-67
2022/04/13 01:01:34;;;;;;;3.83;1.38;;;16.10;65.70;;;;;;5031403;28;20021;-67
2022/04/13 01:04:00;;;;;;;2.60;1.35;;;16.00;65.70;;;;;;5031204;28;20025;-68
2022/04/13 01:06:27;;;;;;;3.75;1.25;;;16.00;65.80;;;;;;5033950;28;20033;-68
2022/04/13 01:08:55;;;;;;;4.30;1.90;;;16.00;65.90;;;;;;5031307;28;20049;-68
2022/04/13 01:11:21;;;;;;;4.40;1.45;;;16.00;66.00;;;;;;5034178;28;20407;-68
2022/04/13 01:13:47;;;;;;;3.58;1.73;;;15.90;66.00;;;;;;5030690;28;20026;-68
2022/04/13 01:16:13;;;;;;;4.55;1.60;;;15.90;66.10;;;;;;5033881;28;20122;-68
2022/04/13 01:18:38;;;;;;;5.25;2.08;;;15.80;66.40;;;;;;5031029;28;20029;-68
2022/04/13 01:21:05;;;;;;;3.88;2.40;;;15.70;66.50;;;;;;5032913;28;20018;-68
2022/04/13 01:23:31;;;;;;;3.08;1.20;;;15.70;66.60;;;;;;5046027;28;20126;-68
2022/04/13 01:25:56;;;;;;;5.63;1.88;;;15.70;66.70;;;;;;5039235;28;20416;-68
2022/04/13 01:28:23;;;;;;;2.42;1.20;;;15.60;66.70;;;;;;5033616;28;20033;-68
2022/04/13 01:30:48;;;;;;;4.63;1.38;;;15.60;66.80;;;;;;5030895;28;20503;-68
2022/04/13 01:33:14;;;;;;;3.22;1.33;;;15.60;66.80;;;;;;5029044;28;20029;-68
2022/04/13 01:35:40;;;;;;;4.05;1.48;;;15.60;66.90;;;;;;5035376;28;20516;-67
2022/04/13 01:38:06;;;;;;;3.60;1.40;;;15.60;67.00;;;;;;5030794;28;20029;-67
2022/04/13 01:40:31;;;;;;;4.15;1.55;;;15.60;67.00;;;;;;5028234;28;20016;-68
2022/04/13 01:42:57;;;;;;;3.95;1.55;;;15.60;67.70;;;;;;5038687;28;20060;-68
2022/04/13 01:45:22;;;;;;;3.42;1.85;;;15.60;67.10;;;;;;5028187;28;20439;-68
2022/04/13 01:47:49;;;;;;;4.93;1.60;;;15.60;67.20;;;;;;5028262;28;20504;-67
2022/04/13 01:50:16;;;;;;;4.20;1.42;;;15.50;67.20;;;;;;5031476;28;20029;-67
2022/04/13 01:52:42;;;;;;;3.30;1.65;;;15.50;67.30;;;;;;5029632;28;20358;-68
2022/04/13 01:55:08;;;;;;;5.05;1.40;;;15.50;67.40;;;;;;5028091;28;20049;-68
2022/04/13 01:57:35;;;;;;;3.28;1.50;;;15.40;67.50;;;;;;5030500;28;20053;-67
2022/04/13 02:00:01;;;;;;;6.72;1.65;;;15.40;67.70;;;;;;5027539;28;20391;-67
2022/04/13 02:02:26;;;;;;;3.42;2.03;;;15.40;67.90;;;;;;5046300;28;20299;-68
2022/04/13 02:04:52;;;;;;;4.93;1.90;;;15.30;68.00;;;;;;5046384;28;20124;-67
2022/04/13 02:07:17;;;;;;;4.07;1.60;;;15.30;68.30;;;;;;5028026;28;20025;-67
2022/04/13 02:09:44;;;;;;;6.07;2.15;;;15.20;68.40;;;;;;5030458;28;20063;-67
2022/04/13 02:12:10;;;;;;;6.80;2.30;;;15.20;68.60;;;;;;5030300;28;20076;-68
2022/04/13 02:14:36;;;;;;;5.25;2.58;;;15.20;68.80;;;;;;5035904;28;20017;-67
2022/04/13 02:17:01;;;;;;;5.63;2.63;;;15.20;69.00;;;;;;5029061;28;20113;-67
2022/04/13 02:19:27;;;;;;;4.45;2.55;;;15.10;69.20;;;;;;5034248;28;20025;-67
2022/04/13 02:21:52;;;;;;;4.13;2.40;;;15.10;69.50;;;;;;5027319;28;20049;-67
2022/04/13 02:24:18;;;;;;;3.80;2.50;;;15.10;69.60;;;;;;5031592;28;20028;-67
2022/04/13 02:26:43;;;;;;;5.63;2.72;;;15.00;69.70;;;;;;5031805;28;20021;-66
2022/04/13 02:29:09;;;;;;;4.10;2.40;;;15.10;69.90;;;;;;5027591;28;20029;-67
2022/04/13 02:31:34;;;;;;;4.95;2.40;;;15.00;70.00;;;;;;5030372;28;20033;-66
2022/04/13 02:34:03;;;;;;;3.85;2.35;;;15.00;70.20;;;;;;5045876;28;20020;-67
2022/04/13 02:36:29;;;;;;;3.97;2.73;;;15.00;70.40;;;;;;5046008;28;20393;-66
2022/04/13 02:38:55;;;;;;;3.92;2.40;;;14.90;70.60;;;;;;5033890;28;20258;-66
2022/04/13 02:41:20;;;;;;;4.97;2.95;;;14.80;70.80;;;;;;5033595;28;20030;-66
2022/04/13 02:43:46;;;;;;;5.45;2.65;;;14.80;71.10;;;;;;5033723;28;20473;-66
2022/04/13 02:46:12;;;;;;;6.28;3.08;;;14.80;71.30;;;;;;5036494;28;20112;-66
2022/04/13 02:48:37;;;;;;;4.82;2.72;;;14.70;71.50;;;;;;5033763;28;20473;-66
2022/04/13 02:51:03;;;;;;;4.30;2.60;;;14.70;71.80;;;;;;5033389;28;20489;-67
2022/04/13 02:53:30;;;;;;;4.80;2.60;;;14.70;72.00;;;;;;5035949;28;20021;-66
2022/04/13 02:55:55;;;;;;;5.13;2.70;;;14.60;72.10;;;;;;5038971;28;20736;-67
2022/04/13 02:58:21;;;;;;;4.75;3.17;;;14.60;72.30;;;;;;5044800;28;20482;-66
2022/04/13 03:00:47;;;;;;;4.80;3.00;;;14.60;72.50;;;;;;5033499;28;20026;-66
2022/04/13 03:03:12;;;;;;;4.47;3.25;;;14.60;72.70;;;;;;5036676;28;20025;-66
2022/04/13 03:05:38;;;;;;;6.63;3.25;;;14.50;72.80;;;;;;5038622;28;20525;-66
2022/04/13 03:08:06;;;;;;;8.43;4.30;;;14.50;73.10;;;;;;5033266;28;20052;-66
2022/04/13 03:10:31;;;;;;;8.30;4.15;;;14.40;73.60;;;;;;5035179;28;20033;-67
2022/04/13 03:12:57;;;;;;;5.53;3.95;;;14.30;74.30;;;;;;5042477;28;20496;-66
2022/04/13 03:15:25;;;;;;;6.97;4.07;;;14.30;74.40;;;;;;5035822;28;20035;-66
2022/04/13 03:17:51;;;;;;;8.75;3.90;;;14.20;74.60;;;;;;5033143;28;20053;-66
2022/04/13 03:20:16;;;;;;;5.13;3.67;;;14.10;74.80;;;;;;5030572;28;20026;-67
2022/04/13 03:22:42;;;;;;;7.28;3.67;;;14.10;75.10;;;;;;5033045;28;20077;-66
2022/04/13 03:25:08;;;;;;;6.00;3.47;;;14.10;75.30;;;;;;5035505;28;20029;-66
2022/04/13 03:27:33;;;;;;;7.10;4.03;;;14.00;75.40;;;;;;5031494;28;20026;-66
2022/04/13 03:29:59;;;;;;;5.88;3.92;;;14.00;75.60;;;;;;5030630;28;20037;-66
2022/04/13 03:32:24;;;;;;;7.47;3.85;;;14.00;75.80;;;;;;5037579;28;20026;-66
2022/04/13 03:34:50;;;;;;;9.90;4.63;;;13.90;75.90;;;;;;5030758;28;20521;-66
2022/04/13 03:37:15;;;;;;;6.10;3.88;;;13.90;76.20;;;;;;5032607;28;20022;-66
2022/04/13 03:39:41;;;;;;;5.38;4.20;;;13.90;76.30;;;;;;5031525;28;20021;-66
2022/04/13 03:42:07;;;;;;;6.40;4.07;;;13.90;76.40;;;;;;5032740;28;20041;-66
2022/04/13 03:44:33;;;;;;;7.82;4.22;;;13.90;76.60;;;;;;5029700;28;20041;-66
2022/04/13 03:46:58;;;;;;;7.38;4.10;;;13.80;76.70;;;;;;5036083;28;20029;-67
2022/04/13 03:49:24;;;;;;;5.28;3.55;;;13.90;76.80;;;;;;5034210;28;20033;-66
2022/04/13 03:51:50;;;;;;;6.22;3.88;;;13.80;76.90;;;;;;5035234;28;20092;-66
2022/04/13 03:54:15;;;;;;;11.15;5.88;;;13.70;77.00;;;;;;5034875;28;20029;-66
2022/04/13 03:56:41;;;;;;;6.30;4.38;;;13.60;77.80;;;;;;5029654;28;20029;-66
2022/04/13 03:59:07;;;;;;;5.70;4.00;;;13.50;78.10;;;;;;5032334;28;20511;-66
2022/04/13 04:01:33;;;;;;;8.30;5.20;;;13.40;78.50;;;;;;5035036;28;20044;-66
2022/04/13 04:03:59;;;;;;;7.55;4.32;;;13.40;78.80;;;;;;5036144;28;20026;-66
2022/04/13 04:06:25;;;;;;;6.63;3.55;;;13.40;78.80;;;;;;5030857;28;20130;-67
2022/04/13 04:08:51;;;;;;;4.95;3.90;;;13.40;78.80;;;;;;5037733;28;20430;-66
2022/04/13 04:11:17;;;;;;;4.55;3.65;;;13.30;79.00;;;;;;5029304;28;20556;-66
2022/04/13 04:13:42;;;;;;;7.70;4.57;;;13.30;79.10;;;;;;5031965;28;20104;-66
2022/04/13 04:16:08;;;;;;;6.63;3.95;;;13.30;79.10;;;;;;5034732;28;20036;-66
2022/04/13 04:18:34;;;;;;;8.20;4.85;;;13.30;79.20;;;;;;5032207;28;20017;-66
2022/04/13 04:21:00;;;;;;;6.57;4.25;;;13.20;79.30;;;;;;5032021;28;20033;-66
2022/04/13 04:23:25;;;;;;;7.22;4.13;;;13.30;79.50;;;;;;5041189;28;20045;-66
2022/04/13 04:25:51;;;;;;;4.97;3.97;;;13.20;79.50;;;;;;5031688;28;20489;-66
2022/04/13 04:28:16;;;;;;;6.50;4.40;;;13.10;79.60;;;;;;5029095;28;20021;-66
2022/04/13 04:30:42;;;;;;;8.85;4.13;;;13.10;79.80;;;;;;5033364;28;20489;-66
2022/04/13 04:33:09;;;;;;;7.32;4.30;;;13.10;80.00;;;;;;5029952;28;20052;-66
2022/04/13 04:35:35;;;;;;;8.07;4.53;;;13.10;80.20;;;;;;5028754;28;20026;-66
2022/04/13 04:38:02;;;;;;;8.00;4.60;;;13.10;80.40;;;;;;5034196;28;20132;-66
2022/04/13 04:40:28;;;;;;;7.75;4.82;;;13.00;80.40;;;;;;5031179;28;20553;-66
2022/04/13 04:42:54;;;;;;;6.25;4.68;;;12.90;80.60;;;;;;5031834;28;20052;-67
2022/04/13 04:45:20;;;;;;;6.28;4.43;;;13.00;80.90;;;;;;5031556;28;20021;-66
2022/04/13 04:47:47;;;;;;;10.13;5.25;;;12.90;80.90;;;;;;5031738;28;20514;-66
2022/04/13 04:50:14;;;;;;;7.65;4.72;;;12.90;81.00;;;;;;5028474;28;20485;-66
2022/04/13 04:52:41;;;;;;;6.40;4.72;;;12.80;81.20;;;;;;5031310;28;20474;-67
2022/04/13 04:55:11;;;;;;;9.23;4.97;;;12.80;81.50;;;;;;5031345;28;20017;-67
2022/04/13 04:57:37;;;;;;;6.25;4.72;;;12.70;81.50;;;;;;5028789;28;20134;-66
2022/04/13 05:00:05;;;;;;;7.30;4.45;;;12.70;81.70;;;;;;5040868;28;20497;-66
2022/04/13 05:02:31;;;;;;;5.30;3.85;;;12.60;81.80;;;;;;5028603;28;20461;-66
2022/04/13 05:04:56;;;;;;;6.40;4.40;;;12.60;82.10;;;;;;5031152;28;20108;-66
2022/04/13 05:07:22;;;;;;;5.90;4.07;;;12.60;82.30;;;;;;5028340;28;20405;-66
2022/04/13 05:09:47;;;;;;;5.05;3.50;;;12.50;82.40;;;;;;5042500;28;20025;-66
2022/04/13 05:12:13;;;;;;;5.03;3.88;;;12.50;82.60;;;;;;5050057;28;20526;-66
2022/04/13 05:14:39;;;;;;;5.80;3.83;;;12.50;82.70;;;;;;5051732;28;20025;-66
2022/04/13 05:17:04;;;;;;;4.18;3.60;;;12.50;82.90;;;;;;5036016;28;20051;-66
2022/04/13 05:19:30;;;;;;;6.68;4.13;;;12.50;83.00;;;;;;5030860;28;20030;-66
2022/04/13 05:21:55;;;;;;;6.38;4.45;;;12.40;83.10;;;;;;5031917;28;20041;-65
2022/04/13 05:24:21;;;;;;;10.45;6.07;;;12.30;83.50;;;;;;5049625;28;20033;-66
2022/04/13 05:26:46;;;;;;;7.82;5.28;;;12.20;84.40;;;;;;5050918;28;20033;-66
2022/04/13 05:29:12;;;;;;;7.82;5.13;;;12.10;84.90;;;;;;5050694;28;20020;-66
2022/04/13 05:31:37;;;;;;;8.15;4.95;;;12.20;85.10;;;;;;5052211;28;20052;-66
2022/04/13 05:34:03;;;;;;;7.35;4.13;;;12.20;85.00;;;;;;5050549;28;20025;-66
2022/04/13 05:36:29;;;;;;;6.65;4.20;;;12.20;85.00;;;;;;5051767;28;20021;-66
2022/04/13 05:38:54;;;;;;;7.75;5.45;;;12.30;85.10;;;;;;5050662;28;20090;-66
2022/04/13 05:41:20;;;;;;;13.45;8.43;;;12.30;85.40;;;;;;5051909;28;20440;-67
2022/04/13 05:43:45;;;;;;;8.50;6.20;;;12.30;86.60;;;;;;5049948;28;20542;-66
2022/04/13 05:46:11;;;;;;;9.63;5.70;;;12.30;87.10;;;;;;5050068;28;20535;-66
2022/04/13 05:48:36;;;;;;;11.35;8.27;;;12.30;87.30;;;;;;5051969;28;20060;-67
2022/04/13 05:51:02;;;;;;;12.02;8.02;;;12.30;89.00;;;;;;5047147;28;20071;-66
2022/04/13 05:53:27;;;;;;;10.75;8.23;;;12.20;89.70;;;;;;5049870;28;20025;-66
2022/04/13 05:55:56;;;;;;;11.73;7.38;;;12.20;90.30;;;;;;5050474;28;20059;-67
2022/04/13 05:58:25;;;;;;;6.88;5.93;;;12.20;90.50;;;;;;5051669;28;20049;-66
2022/04/13 06:00:51;;;;;;;;;;;12.30;90.50;;;;;;5051553;28;20025;-66
2022/04/13 06:03:18;;;;;;;9.40;5.40;;;12.40;90.40;;;;;;5051047;28;19904;-66
2022/04/13 06:05:45;;;;;;;9.10;5.28;;;12.40;90.60;;;;;;5049703;28;20029;-66
2022/04/13 06:08:10;;;;;;;9.85;5.70;;;12.50;90.50;;;;;;5042521;28;20024;-66
2022/04/13 06:10:36;;;;;;;6.40;4.90;;;12.50;90.40;;;;;;5054843;28;20041;-66
2022/04/13 06:13:01;;;;;;;7.63;4.95;;;12.70;90.40;;;;;;5055420;28;20075;-66
2022/04/13 06:15:28;;;;;;;8.52;4.72;;;12.80;90.40;;;;;;5055590;28;20028;-66
2022/04/13 06:17:54;;;;;;;6.80;4.07;;;12.90;90.30;;;;;;5055203;28;20508;-66
2022/04/13 06:20:20;;;;;;;7.82;4.85;;;13.00;90.30;;;;;;5054027;28;20033;-66
2022/04/13 06:22:46;;;;;;;7.05;4.70;;;13.10;90.20;;;;;;5055137;28;20040;-66
2022/04/13 06:25:12;;;;;;;6.75;5.28;;;13.30;90.20;;;;;;5054909;28;20033;-66
2022/04/13 06:27:39;;;;;;;7.05;5.32;;;13.30;90.20;;;;;;5055101;28;20036;-66
2022/04/13 06:30:05;;;;;;;5.78;4.50;;;13.50;90.20;;;;;;5055107;28;20036;-66
2022/04/13 06:32:35;;;;;;;8.25;5.95;;;13.60;90.20;;;;;;5054940;28;20566;-66
2022/04/13 06:35:03;;;;;;;9.50;6.30;;;13.70;90.20;;;;;;5053329;28;20500;-67
2022/04/13 06:37:28;;;;;;;9.10;6.07;;;13.70;90.20;;;;;;5054134;28;20051;-67
2022/04/13 06:40:05;;;;;;;8.25;5.85;;;13.80;90.30;;;;;;5053924;28;20635;-66
2022/04/13 06:42:36;;;;;;;8.48;6.50;;;13.90;90.30;;;;;;5054746;28;20481;-67
2022/04/13 06:45:03;;;;;;;10.63;6.32;;;13.90;90.30;;;;;;5044627;28;20432;-66
2022/04/13 06:47:29;;;;;;;8.63;6.60;;;14.00;90.30;;;;;;5053113;28;20032;-67
2022/04/13 06:49:55;;;;;;;8.82;7.15;;;14.10;90.40;;;;;;5053098;28;20082;-66
2022/04/13 06:52:21;;;;;;;10.93;7.10;;;14.10;90.40;;;;;;5050281;28;20485;-67
2022/04/13 06:54:46;;;;;;;10.88;7.03;;;14.20;90.40;;;;;;5050450;28;20025;-66
2022/04/13 06:57:12;;;;;;;9.70;6.97;;;14.20;90.40;;;;;;5054202;28;20099;-66
2022/04/13 06:59:38;;;;;;;10.15;8.00;;;14.20;90.50;;;;;;5054359;28;20032;-66
2022/04/13 07:02:06;;;;;;;9.55;7.50;;;14.30;90.60;;;;;;5053247;28;20021;-66
2022/04/13 07:04:33;;;;;;;11.40;7.47;;;14.30;90.60;;;;;;5054554;28;20028;-66
2022/04/13 07:06:58;;;;;;;11.60;8.18;;;14.40;90.70;;;;;;5051642;28;20025;-66
2022/04/13 07:09:24;;;;;;;11.23;7.32;;;14.40;91.00;;;;;;5054164;28;20545;-67
2022/04/13 07:11:49;;;;;;;9.75;7.47;;;14.50;90.70;;;;;;5054145;28;20029;-67
2022/04/13 07:14:15;;;;;;;11.18;7.38;;;14.50;90.70;;;;;;5048798;28;20088;-67
2022/04/13 07:16:40;;;;;;;9.15;6.72;;;14.60;90.70;;;;;;5053439;28;20099;-67
2022/04/13 07:19:06;;;;;;;11.75;7.35;;;14.70;90.60;;;;;;5052711;28;20480;-67
2022/04/13 07:21:32;;;;;;;10.50;8.48;;;14.70;90.60;;;;;;5049924;28;20393;-66
2022/04/13 07:23:57;;;;;;;15.38;9.70;;;14.80;90.60;;;;;;5053670;28;20036;-66
2022/04/13 07:26:23;;;;;;;13.15;9.77;;;14.90;90.70;;;;;;5053456;28;20055;-66
2022/04/13 07:28:49;;;;;;;13.32;9.18;;;15.00;90.70;;;;;;5052440;28;20451;-66
2022/04/13 07:31:14;;;;;;;14.07;9.35;;;15.00;90.70;;;;;;5052603;28;20500;-67
2022/04/13 07:33:40;;;;;;;16.67;11.15;;;15.10;90.70;;;;;;5053827;28;20033;-66
2022/04/13 07:36:05;;;;;;;15.20;10.27;;;15.10;90.70;;;;;;5048953;28;20029;-66
2022/04/13 07:38:31;;;;;;;14.02;10.13;;;15.10;90.80;;;;;;5051664;28;20029;-66
2022/04/13 07:40:58;;;;;;;11.98;9.45;;;15.20;90.90;;;;;;5050295;28;20053;-66
2022/04/13 07:43:24;;;;;;;14.25;10.60;;;15.20;90.90;;;;;;5050466;28;20031;-66
2022/04/13 07:45:50;;;;;;;12.80;9.35;;;15.20;90.90;;;;;;5050861;28;20021;-66
2022/04/13 07:48:15;;;;;;;11.80;9.98;;;15.30;90.80;;;;;;5050757;28;20059;-67
2022/04/13 07:50:41;;;;;;;12.63;9.88;;;15.30;90.80;;;;;;5050984;28;20025;-66
2022/04/13 07:53:07;;;;;;;14.05;9.38;;;15.40;90.80;;;;;;5034189;28;20116;-67
2022/04/13 07:55:32;;;;;;;15.13;10.02;;;15.40;90.70;;;;;;5052005;28;20031;-66
2022/04/13 07:57:58;;;;;;;12.52;9.90;;;15.50;90.70;;;;;;5052104;28;20025;-67
2022/04/13 08:00:23;;;;;;;12.50;9.90;;;15.60;90.70;;;;;;5051972;28;20064;-66
2022/04/13 08:02:49;;;;;;;12.07;9.18;;;15.70;90.60;;;;;;5052446;28;20036;-67
2022/04/13 08:05:14;;;;;;;11.35;8.75;;;15.80;90.40;;;;;;5053295;28;20480;-67
2022/04/13 08:07:41;;;;;;;10.48;7.82;;;15.80;90.20;;;;;;5049344;28;20033;-66
2022/04/13 08:10:07;;;;;;;11.20;8.15;;;16.00;90.10;;;;;;5050394;28;20051;-67
2022/04/13 08:12:33;;;;;;;10.27;7.22;;;16.00;90.00;;;;;;5048446;28;20107;-66
2022/04/13 08:14:59;;;;;;;8.88;6.80;;;16.00;89.80;;;;;;5051180;28;20029;-66
2022/04/13 08:17:25;;;;;;;9.82;6.28;;;16.00;89.50;;;;;;5049260;28;20035;-66
2022/04/13 08:19:52;;;;;;;9.38;6.45;;;16.10;89.40;;;;;;5052990;28;20044;-66
2022/04/13 08:22:26;;;;;;;9.43;6.45;;;16.10;89.30;;;;;;5052803;28;20511;-66
2022/04/13 08:24:52;;;;;;;13.90;8.02;;;16.20;89.20;;;;;;5053019;28;20107;-66
2022/04/13 08:27:18;;;;;;;10.15;7.65;;;16.20;89.00;;;;;;5051415;28;20554;-66
2022/04/13 08:29:44;;;;;;;8.93;6.55;;;16.20;88.80;;;;;;5052812;28;20037;-66
2022/04/13 08:32:09;;;;;;;7.63;5.50;;;16.30;88.80;;;;;;5050941;28;20029;-66
2022/04/13 08:34:35;;;;;;;7.15;5.22;;;16.30;88.60;;;;;;5048284;28;20477;-66
2022/04/13 08:37:00;;;;;;;8.45;4.75;;;16.40;88.30;;;;;;5049819;28;20032;-66
2022/04/13 08:39:26;;;;;;;7.97;4.57;;;16.50;88.00;;;;;;5051835;28;20029;-66
2022/04/13 08:41:57;;;;;;;9.50;5.05;;;16.60;87.60;;;;;;5052520;28;20020;-66
2022/04/13 08:44:28;;;;;;;7.20;4.82;;;16.70;87.00;;;;;;5052291;28;20040;-66
2022/04/13 08:47:00;;;;;;;7.50;5.60;;;16.70;86.90;;;;;;5052330;28;20075;-66
2022/04/13 08:49:26;;;;;;;7.07;5.10;;;16.80;87.10;;;;;;5052210;28;20064;-66
2022/04/13 08:51:53;;;;;;;7.93;4.93;;;16.90;86.00;;;;;;5044884;28;20480;-67
2022/04/13 08:54:30;;;;;;;7.90;5.20;;;17.00;85.30;;;;;;5050851;28;20074;-67
2022/04/13 08:56:57;;;;;;;6.57;4.10;;;17.10;84.90;;;;;;5052555;28;20099;-67
2022/04/13 08:59:50;;;;;;;6.47;3.92;;;17.10;84.10;;;;;;5052113;28;20159;-67
2022/04/13 09:02:39;;;;;;;7.78;4.65;;;17.30;83.50;;;;;;5052350;28;20025;-67
2022/04/13 09:05:12;;;;;;;5.28;4.00;;;17.30;82.80;;;;;;5052216;28;20040;-67
2022/04/13 09:07:39;;;;;;;6.25;4.05;;;17.40;82.50;;;;;;5052229;28;20104;-67
2022/04/13 09:10:10;;;;;;;6.40;4.07;;;17.50;82.30;;;;;;5051979;28;20033;-67
2022/04/13 09:12:36;;;;;;;5.38;3.67;;;17.70;82.10;;;;;;5052214;28;20057;-67
2022/04/13 09:15:03;;;;;;;5.80;3.53;;;17.80;81.60;;;;;;5051947;28;20085;-67
2022/04/13 09:17:29;;;;;;;5.10;3.45;;;17.80;81.60;;;;;;5052137;28;20029;-67
2022/04/13 09:19:59;;;;;;;6.15;3.40;;;17.90;80.50;;;;;;5052100;28;20392;-67
2022/04/13 09:22:25;;;;;;;6.20;2.30;;;18.00;80.30;;;;;;5051710;28;20040;-67
2022/04/13 09:24:51;;;;;;;3.55;2.35;;;18.00;79.90;;;;;;5051987;28;20473;-67
2022/04/13 09:27:20;;;;;;;5.38;2.95;;;18.20;79.50;;;;;;5051903;28;20036;-67
2022/04/13 09:29:46;;;;;;;6.53;3.85;;;18.40;78.90;;;;;;5051571;28;20044;-67
2022/04/13 09:32:12;;;;;;;4.30;2.50;;;18.60;78.40;;;;;;5035009;28;20041;-67
2022/04/13 09:34:37;;;;;;;4.43;2.22;;;18.70;77.70;;;;;;5034419;28;20538;-67
2022/04/13 09:37:03;;;;;;;5.47;2.63;;;18.90;77.50;;;;;;5051891;28;20025;-67
2022/04/13 09:39:30;;;;;;;4.20;2.38;;;18.90;77.20;;;;;;5051860;28;20108;-67
2022/04/13 09:42:01;;;;;;;5.05;2.45;;;19.00;76.90;;;;;;5051407;28;20068;-67
2022/04/13 09:44:29;;;;;;;4.95;3.08;;;19.00;76.60;;;;;;5048251;28;20036;-66
2022/04/13 09:47:07;;;;;;;4.00;2.00;;;19.00;76.40;;;;;;5054579;28;20017;-67
2022/04/13 09:49:33;;;;;;;3.92;2.22;;;19.00;76.10;;;;;;5054227;28;20033;-66
2022/04/13 09:52:00;;;;;;;4.05;2.67;;;18.90;76.60;;;;;;5052385;28;20017;-66
2022/04/13 09:54:26;;;;;;;5.35;2.88;;;18.80;76.00;;;;;;5053239;28;20041;-67
2022/04/13 09:56:51;;;;;;;4.95;2.80;;;18.80;76.10;;;;;;5053963;28;20021;-66
2022/04/13 09:59:25;;;;;;;3.47;2.17;;;18.70;76.20;;;;;;5053964;28;20021;-66
2022/04/13 10:01:51;;;;;;;4.10;2.30;;;18.70;76.30;;;;;;5051409;28;20180;-67
2022/04/13 10:04:24;;;;;;;4.07;2.38;;;18.70;76.30;;;;;;5053846;28;20108;-67
2022/04/13 10:06:49;;;;;;;4.25;2.50;;;18.70;75.90;;;;;;5053407;28;20013;-67
2022/04/13 10:09:15;;;;;;;4.80;3.10;;;18.70;75.80;;;;;;5051999;28;20025;-66
2022/04/13 10:12:02;;;;;;;3.83;2.50;;;18.70;75.90;;;;;;5053781;28;20033;-67
2022/04/13 10:14:27;;;;;;;4.20;2.40;;;18.60;75.50;;;;;;5053504;28;20036;-67
2022/04/13 10:16:56;;;;;;;3.75;2.53;;;18.50;75.70;;;;;;5053052;28;20029;-66
2022/04/13 10:19:22;;;;;;;4.35;2.45;;;18.50;75.70;;;;;;5053651;28;20017;-66
2022/04/13 10:21:50;;;;;;;3.22;2.47;;;18.50;75.70;;;;;;5053071;28;20523;-67
2022/04/13 10:24:18;;;;;;;6.25;3.47;;;18.50;75.60;;;;;;5050763;28;20108;-66
2022/04/13 10:27:08;;;;;;;5.90;4.00;;;18.50;75.30;;;;;;5054402;28;20036;-67
2022/04/13 10:29:39;;;;;;;6.28;3.45;;;18.50;75.20;;;;;;5055177;28;20025;-67
2022/04/13 10:32:08;;;;;;;4.82;3.13;;;18.40;75.40;;;;;;5054117;28;20024;-67
2022/04/13 10:34:41;;;;;;;5.13;3.67;;;18.30;75.60;;;;;;5053316;28;20024;-66
2022/04/13 10:37:09;;;;;;;5.65;3.30;;;18.30;75.70;;;;;;5054894;28;20059;-66
2022/04/13 10:39:35;;;;;;;5.55;3.67;;;18.20;76.00;;;;;;5053954;28;20114;-66
2022/04/13 10:42:02;;;;;;;6.00;3.75;;;18.20;76.40;;;;;;5047572;28;20400;-67
2022/04/13 10:44:41;;;;;;;5.53;3.63;;;18.10;76.40;;;;;;5045026;28;20056;-67
2022/04/13 10:47:09;;;;;;;6.53;3.88;;;18.10;76.60;;;;;;5054702;28;20017;-66
2022/04/13 10:49:58;;;;;;;5.70;3.58;;;18.10;76.80;;;;;;5054865;28;20354;-67
2022/04/13 10:52:26;;;;;;;;;;;18.10;76.60;;;;;;5049934;28;20048;-67
2022/04/13 10:55:01;;;;;;;6.22;3.65;;;18.00;76.80;;;;;;5043138;28;19928;-67
2022/04/13 10:57:35;;;;;;;4.72;3.53;;;18.00;76.90;;;;;;5033636;28;20026;-66
2022/04/13 11:00:04;;;;;;;4.93;3.22;;;18.00;76.90;;;;;;5034926;28;20033;-66
2022/04/13 11:02:38;;;;;;;5.60;3.90;;;18.00;77.10;;;;;;5034501;28;20484;-66
2022/04/13 11:05:04;;;;;;;6.60;4.53;;;18.00;77.00;;;;;;5033246;28;20131;-66
2022/04/13 11:07:30;;;;;;;6.20;4.50;;;18.00;77.10;;;;;;5034536;28;20032;-66
2022/04/13 11:09:57;;;;;;;4.85;3.67;;;18.00;77.00;;;;;;5048421;28;20037;-66
2022/04/13 11:12:26;;;;;;;5.47;4.10;;;18.10;77.00;;;;;;5044179;28;20504;-66
2022/04/13 11:14:54;;;;;;;5.65;4.35;;;18.10;77.20;;;;;;5047531;28;20110;-67
2022/04/13 11:17:19;;;;;;;7.13;4.70;;;18.10;77.10;;;;;;5034869;28;20017;-66
2022/04/13 11:19:47;;;;;;;7.30;5.07;;;18.10;76.90;;;;;;5050977;28;20397;-67
2022/04/13 11:22:16;;;;;;;8.38;4.70;;;18.10;76.90;;;;;;5052268;28;20045;-66
2022/04/13 11:24:48;;;;;;;5.82;4.13;;;18.10;77.00;;;;;;5035118;28;20033;-66
2022/04/13 11:27:15;;;;;;;6.00;3.83;;;18.10;77.20;;;;;;5050320;28;20013;-67
2022/04/13 11:29:57;;;;;;;5.78;4.63;;;18.00;77.30;;;;;;5052509;28;20029;-67
2022/04/13 11:32:33;;;;;;;11.27;3.97;;;17.90;77.20;;;;;;5047358;28;20397;-67
2022/04/13 11:35:00;;;;;;;6.22;3.60;;;17.90;77.20;;;;;;5052235;28;20070;-67
2022/04/13 11:37:36;;;;;;;7.28;3.85;;;17.80;77.20;;;;;;5053307;28;20021;-67
2022/04/13 11:40:06;;;;;;;5.40;3.40;;;17.80;77.10;;;;;;5053658;28;20024;-66
2022/04/13 11:42:34;;;;;;;4.63;3.13;;;17.80;77.80;;;;;;5044169;28;20025;-67
2022/04/13 11:45:14;;;;;;;5.43;2.93;;;17.80;77.20;;;;;;5053309;28;20439;-67
2022/04/13 11:47:48;;;;;;;5.28;2.85;;;17.70;77.30;;;;;;5053464;28;20021;-67
2022/04/13 11:50:14;;;;;;;8.02;2.80;;;17.70;77.40;;;;;;5053617;28;20051;-67
2022/04/13 11:53:06;;;;;;;6.78;2.72;;;17.80;77.60;;;;;;5053551;28;20477;-67
2022/04/13 11:55:40;;;;;;;5.63;3.13;;;17.80;77.30;;;;;;5053392;28;20107;-67
2022/04/13 11:58:09;;;;;;;5.75;2.30;;;17.80;77.50;;;;;;5053433;28;20461;-66
2022/04/13 12:00:57;;;;;;;5.47;2.80;;;17.70;77.50;;;;;;5053490;28;20496;-67
2022/04/13 12:03:25;;;;;;;6.22;3.25;;;17.80;77.50;;;;;;5053268;28;20033;-67
2022/04/13 12:05:54;;;;;;;7.30;3.25;;;17.80;77.70;;;;;;5053035;28;20032;-67
2022/04/13 12:08:23;;;;;;;6.13;3.03;;;17.80;77.60;;;;;;5053217;28;20048;-67
2022/04/13 12:11:03;;;;;;;3.83;2.58;;;17.70;77.50;;;;;;5053491;28;20025;-67
2022/04/13 12:13:33;;;;;;;6.85;3.28;;;17.80;77.60;;;;;;5051996;28;20025;-67
2022/04/13 12:16:00;;;;;;;7.25;3.00;;;17.70;77.60;;;;;;5053086;28;20025;-67
2022/04/13 12:18:27;;;;;;;4.05;2.63;;;17.70;77.70;;;;;;5051512;28;20040;-66
2022/04/13 12:21:05;;;;;;;3.22;1.92;;;17.70;77.60;;;;;;5053143;28;20071;-67
2022/04/13 12:23:38;;;;;;;6.30;2.88;;;17.80;77.70;;;;;;5052800;28;20057;-67
2022/04/13 12:26:05;;;;;;;5.72;2.58;;;17.80;77.50;;;;;;5052888;28;20447;-67
2022/04/13 12:28:31;;;;;;;6.05;2.97;;;17.80;77.30;;;;;;5053011;28;20036;-66
2022/04/13 12:31:06;;;;;;;5.78;2.80;;;17.90;77.10;;;;;;5052648;28;20070;-67
2022/04/13 12:33:32;;;;;;;3.95;2.17;;;17.90;76.70;;;;;;5052616;28;20033;-67
2022/04/13 12:36:03;;;;;;;4.65;1.90;;;17.90;76.70;;;;;;5052584;28;20017;-66
2022/04/13 12:38:35;;;;;;;3.33;1.75;;;17.90;76.60;;;;;;5053019;28;20040;-66
2022/04/13 12:41:09;;;;;;;4.57;2.10;;;17.90;76.60;;;;;;5052526;28;20047;-66
2022/04/13 12:43:36;;;;;;;7.70;2.50;;;17.90;76.60;;;;;;5052499;28;20033;-66
2022/04/13 12:46:22;;;;;;;6.93;2.55;;;17.80;76.60;;;;;;5052503;28;20044;-67